Time;durP1;ratioP1;P1;durP2;ratioP2;P2;SDS_P1;SDS_P2;PMS_P1;PMS_P2;Temp;Humidity;BMP_temperature;BMP_pressure;BME280_temperature;BME280_humidity;BME280_pressure;Samples;Min_cycle;Max_cycle;Signal;HPM_P1;HPM_P2
2021/08/23 00:00:22;;;;;;;2.92;2.50;;;;;;;;;;5115039;28;20039;-58
2021/08/23 00:02:47;;;;;;;5.53;3.08;;;;;;;;;;5116551;28;20094;-53
2021/08/23 00:05:13;;;;;;;3.40;2.33;;;;;;;;;;5115487;28;20384;-57
2021/08/23 00:07:38;;;;;;;2.95;2.42;;;;;;;;;;5115562;28;20035;-56
2021/08/23 00:10:03;;;;;;;4.13;2.13;;;;;;;;;;5114315;28;20020;-58
2021/08/23 00:12:29;;;;;;;3.13;2.10;;;;;;;;;;5115223;28;20498;-58
2021/08/23 00:14:55;;;;;;;3.55;2.20;;;;;;;;;;5096902;28;20359;-56
2021/08/23 00:17:20;;;;;;;3.42;1.98;;;;;;;;;;5115738;28;20035;-58
2021/08/23 00:19:45;;;;;;;2.20;2.00;;;;;;;;;;5115518;28;20477;-56
2021/08/23 00:22:30;;;;;;;2.33;2.13;;;;;;;;;;5115564;28;20027;-54
2021/08/23 00:24:56;;;;;;;2.20;2.00;;;;;;;;;;5114079;28;20497;-58
2021/08/23 00:27:21;;;;;;;2.78;2.10;;;;;;;;;;5094682;28;20080;-57
2021/08/23 00:29:47;;;;;;;5.13;1.92;;;;;;;;;;5054568;28;20049;-58
2021/08/23 00:32:12;;;;;;;1.77;1.65;;;;;;;;;;5062275;28;20084;-58
2021/08/23 00:34:38;;;;;;;3.38;2.05;;;;;;;;;;5073717;28;20029;-58
2021/08/23 00:37:04;;;;;;;1.80;1.65;;;;;;;;;;5067883;28;20017;-57
2021/08/23 00:39:29;;;;;;;2.25;2.00;;;;;;;;;;5067139;28;20551;-57
2021/08/23 00:41:54;;;;;;;2.95;1.90;;;;;;;;;;5072563;28;20154;-58
2021/08/23 00:44:19;;;;;;;3.70;1.80;;;;;;;;;;5074095;28;20123;-57
2021/08/23 00:46:45;;;;;;;3.42;2.05;;;;;;;;;;5074894;28;20077;-58
2021/08/23 00:49:10;;;;;;;1.50;1.40;;;;;;;;;;5072670;28;20031;-57
2021/08/23 00:51:35;;;;;;;2.42;1.90;;;;;;;;;;5074301;28;20035;-57
2021/08/23 00:54:00;;;;;;;2.55;2.17;;;;;;;;;;5061558;28;20100;-58
2021/08/23 00:56:25;;;;;;;2.70;1.92;;;;;;;;;;5045051;28;20375;-58
2021/08/23 00:58:51;;;;;;;3.50;2.13;;;;;;;;;;5063028;28;20036;-57
2021/08/23 01:01:30;;;;;;;2.33;1.85;;;;;;;;;;5068853;28;20028;-58
2021/08/23 01:04:03;;;;;;;2.30;2.10;;;;;;;;;;5073323;28;20021;-57
2021/08/23 01:06:29;;;;;;;3.05;2.08;;;;;;;;;;5074209;28;20028;-59
2021/08/23 01:08:57;;;;;;;3.28;1.70;;;;;;;;;;5070180;28;20095;-55
2021/08/23 01:11:23;;;;;;;3.30;2.20;;;;;;;;;;5072380;28;20070;-58
2021/08/23 01:13:49;;;;;;;5.20;1.85;;;;;;;;;;5055343;28;20024;-59
2021/08/23 01:16:15;;;;;;;3.08;2.28;;;;;;;;;;5073587;28;20017;-58
2021/08/23 01:18:42;;;;;;;2.70;2.35;;;;;;;;;;5057246;28;20108;-57
2021/08/23 01:21:08;;;;;;;2.55;2.35;;;;;;;;;;5053852;28;20506;-59
2021/08/23 01:23:34;;;;;;;2.92;2.60;;;;;;;;;;5063813;28;20050;-58
2021/08/23 01:26:00;;;;;;;4.90;2.42;;;;;;;;;;5069194;28;20444;-58
2021/08/23 01:28:37;;;;;;;2.78;2.58;;;;;;;;;;5089158;28;20032;-58
2021/08/23 01:31:06;;;;;;;3.20;2.70;;;;;;;;;;5093619;28;20027;-58
2021/08/23 01:33:32;;;;;;;3.15;2.70;;;;;;;;;;5092027;28;20023;-59
2021/08/23 01:35:58;;;;;;;3.28;2.55;;;;;;;;;;5093607;28;20020;-58
2021/08/23 01:38:23;;;;;;;3.67;2.75;;;;;;;;;;5093354;28;20023;-58
2021/08/23 01:40:57;;;;;;;4.13;3.40;;;;;;;;;;5092781;28;20599;-58
2021/08/23 01:43:22;;;;;;;4.93;4.15;;;;;;;;;;5093692;28;20016;-58
2021/08/23 01:45:47;;;;;;;4.07;3.67;;;;;;;;;;5093723;28;20466;-58
2021/08/23 01:48:12;;;;;;;6.40;4.85;;;;;;;;;;5093202;28;20023;-58
2021/08/23 01:50:37;;;;;;;9.82;5.32;;;;;;;;;;5092917;28;20027;-58
2021/08/23 01:53:03;;;;;;;7.60;5.93;;;;;;;;;;5092644;28;20051;-57
2021/08/23 01:55:28;;;;;;;6.43;5.93;;;;;;;;;;5092359;28;20379;-58
2021/08/23 01:57:53;;;;;;;6.45;5.85;;;;;;;;;;5093248;28;20437;-58
2021/08/23 02:00:18;;;;;;;4.30;3.90;;;;;;;;;;5092692;28;20038;-58
2021/08/23 02:02:43;;;;;;;7.85;5.65;;;;;;;;;;5079395;28;20028;-58
2021/08/23 02:05:09;;;;;;;7.53;6.75;;;;;;;;;;5074295;28;20016;-58
2021/08/23 02:07:34;;;;;;;6.38;5.88;;;;;;;;;;5093100;28;20013;-58
2021/08/23 02:09:59;;;;;;;6.03;5.43;;;;;;;;;;5091898;28;20222;-58
2021/08/23 02:12:24;;;;;;;7.00;6.40;;;;;;;;;;5093220;28;20051;-57
2021/08/23 02:14:49;;;;;;;6.45;5.85;;;;;;;;;;5092767;28;20030;-59
2021/08/23 02:17:15;;;;;;;6.38;5.78;;;;;;;;;;5093007;28;20095;-59
2021/08/23 02:19:40;;;;;;;7.75;6.93;;;;;;;;;;5092662;28;20356;-58
2021/08/23 02:22:05;;;;;;;6.57;5.97;;;;;;;;;;5092857;28;20475;-58
2021/08/23 02:24:33;;;;;;;7.72;6.97;;;;;;;;;;5091884;28;20043;-54
2021/08/23 02:26:58;;;;;;;9.02;8.23;;;;;;;;;;5091940;28;20040;-57
2021/08/23 02:29:23;;;;;;;8.20;7.50;;;;;;;;;;5092573;28;20153;-58
2021/08/23 02:31:48;;;;;;;8.95;8.20;;;;;;;;;;5092707;28;20138;-59
2021/08/23 02:34:14;;;;;;;8.82;8.13;;;;;;;;;;5091925;28;20042;-58
2021/08/23 02:36:39;;;;;;;9.40;8.02;;;;;;;;;;5091889;28;20272;-57
2021/08/23 02:39:05;;;;;;;8.02;7.35;;;;;;;;;;5092053;28;20501;-58
2021/08/23 02:41:30;;;;;;;7.90;7.20;;;;;;;;;;5092364;28;20031;-57
2021/08/23 02:43:55;;;;;;;7.40;6.90;;;;;;;;;;5088279;28;20112;-58
2021/08/23 02:46:21;;;;;;;6.78;6.15;;;;;;;;;;5092254;28;20020;-58
2021/08/23 02:48:46;;;;;;;7.07;6.47;;;;;;;;;;5092461;28;20066;-58
2021/08/23 02:51:12;;;;;;;6.55;5.93;;;;;;;;;;5091474;28;20044;-59
2021/08/23 02:53:37;;;;;;;7.05;6.45;;;;;;;;;;5092057;28;20073;-58
2021/08/23 02:56:03;;;;;;;6.53;5.93;;;;;;;;;;5092015;28;20024;-58
2021/08/23 02:58:28;;;;;;;6.40;5.80;;;;;;;;;;5091927;28;20507;-59
2021/08/23 03:00:53;;;;;;;6.93;6.25;;;;;;;;;;5091912;28;20020;-59
2021/08/23 03:03:18;;;;;;;6.32;4.75;;;;;;;;;;5092375;28;20024;-60
2021/08/23 03:05:44;;;;;;;6.57;6.07;;;;;;;;;;5091786;28;20028;-59
2021/08/23 03:08:09;;;;;;;4.32;3.92;;;;;;;;;;5091966;28;20024;-59
2021/08/23 03:10:35;;;;;;;5.00;4.47;;;;;;;;;;5090975;28;20032;-58
2021/08/23 03:13:00;;;;;;;4.47;4.07;;;;;;;;;;5092456;28;20103;-58
2021/08/23 03:15:25;;;;;;;5.35;4.90;;;;;;;;;;5092001;28;20074;-59
2021/08/23 03:17:50;;;;;;;4.07;3.75;;;;;;;;;;5091991;28;20023;-57
2021/08/23 03:20:16;;;;;;;4.05;3.67;;;;;;;;;;5094307;28;20043;-58
2021/08/23 03:22:41;;;;;;;4.18;3.85;;;;;;;;;;5095122;28;20016;-59
2021/08/23 03:25:06;;;;;;;4.30;3.90;;;;;;;;;;5090704;28;20035;-59
2021/08/23 03:27:32;;;;;;;4.10;3.72;;;;;;;;;;5096686;28;20042;-59
2021/08/23 03:29:57;;;;;;;3.90;3.53;;;;;;;;;;5112024;28;20024;-59
2021/08/23 03:32:22;;;;;;;3.92;3.63;;;;;;;;;;5112081;28;20065;-58
2021/08/23 03:34:48;;;;;;;4.40;4.00;;;;;;;;;;5099405;28;20471;-57
2021/08/23 03:37:13;;;;;;;5.10;4.63;;;;;;;;;;5100320;28;20024;-59
2021/08/23 03:39:38;;;;;;;4.80;4.40;;;;;;;;;;5091205;28;20055;-59
2021/08/23 03:42:03;;;;;;;4.97;4.57;;;;;;;;;;5091125;28;20111;-58
2021/08/23 03:44:29;;;;;;;4.35;3.92;;;;;;;;;;5073419;28;20016;-58
2021/08/23 03:46:54;;;;;;;4.40;4.00;;;;;;;;;;5091095;28;20020;-59
2021/08/23 03:49:20;;;;;;;5.00;4.43;;;;;;;;;;5091596;28;20020;-58
2021/08/23 03:51:46;;;;;;;5.28;4.88;;;;;;;;;;5090764;28;20386;-59
2021/08/23 03:54:11;;;;;;;6.03;5.43;;;;;;;;;;5096050;28;20394;-58
2021/08/23 03:56:36;;;;;;;4.95;4.53;;;;;;;;;;5091386;28;20027;-59
2021/08/23 03:59:02;;;;;;;6.15;5.55;;;;;;;;;;5090317;28;20032;-58
2021/08/23 04:01:27;;;;;;;5.50;4.95;;;;;;;;;;5091382;28;20024;-57
2021/08/23 04:03:52;;;;;;;5.50;5.10;;;;;;;;;;5090706;28;20134;-57
2021/08/23 04:06:17;;;;;;;4.60;4.03;;;;;;;;;;5104666;28;20020;-57
2021/08/23 04:08:43;;;;;;;4.75;4.35;;;;;;;;;;5094169;28;20031;-60
2021/08/23 04:11:14;;;;;;;5.65;4.63;;;;;;;;;;5090858;28;20458;-59
2021/08/23 04:13:40;;;;;;;5.03;4.63;;;;;;;;;;5091308;28;20379;-59
2021/08/23 04:16:09;;;;;;;4.82;4.43;;;;;;;;;;5099552;28;20020;-58
2021/08/23 04:18:34;;;;;;;4.78;4.25;;;;;;;;;;5109130;28;20019;-59
2021/08/23 04:20:59;;;;;;;4.10;3.72;;;;;;;;;;5090665;28;20031;-58
2021/08/23 04:23:24;;;;;;;5.35;4.78;;;;;;;;;;5090445;28;20095;-57
2021/08/23 04:25:49;;;;;;;5.00;4.47;;;;;;;;;;5093051;28;20114;-58
2021/08/23 04:28:15;;;;;;;6.00;4.45;;;;;;;;;;5090225;28;20509;-55
2021/08/23 04:30:40;;;;;;;5.15;4.63;;;;;;;;;;5090381;28;20028;-57
2021/08/23 04:33:05;;;;;;;5.15;4.53;;;;;;;;;;5091292;28;20023;-58
2021/08/23 04:35:30;;;;;;;3.85;3.45;;;;;;;;;;5089082;28;20019;-58
2021/08/23 04:37:55;;;;;;;4.18;3.75;;;;;;;;;;5084352;28;20062;-56
2021/08/23 04:40:21;;;;;;;5.45;3.60;;;;;;;;;;5071900;28;20031;-57
2021/08/23 04:42:46;;;;;;;3.30;3.00;;;;;;;;;;5073916;28;20016;-57
2021/08/23 04:45:11;;;;;;;3.83;3.38;;;;;;;;;;5094240;28;20024;-58
2021/08/23 04:47:36;;;;;;;3.95;3.55;;;;;;;;;;5094489;28;20418;-57
2021/08/23 04:50:02;;;;;;;5.05;4.07;;;;;;;;;;5094165;28;20036;-57
2021/08/23 04:52:27;;;;;;;3.65;3.35;;;;;;;;;;5086845;28;20052;-54
2021/08/23 04:54:52;;;;;;;6.10;4.05;;;;;;;;;;5090011;28;20433;-55
2021/08/23 04:57:19;;;;;;;5.88;4.65;;;;;;;;;;5093189;28;20393;-56
2021/08/23 04:59:44;;;;;;;6.15;5.18;;;;;;;;;;5075231;28;20422;-56
2021/08/23 05:02:09;;;;;;;8.10;4.35;;;;;;;;;;5093660;28;20066;-55
2021/08/23 05:04:34;;;;;;;2.05;1.85;;;;;;;;;;5094006;28;20052;-54
2021/08/23 05:07:00;;;;;;;5.68;4.85;;;;;;;;;;5091868;28;20392;-54
2021/08/23 05:09:25;;;;;;;5.90;5.30;;;;;;;;;;5084051;28;20493;-55
2021/08/23 05:11:50;;;;;;;5.55;5.03;;;;;;;;;;5085915;28;20016;-55
2021/08/23 05:14:16;;;;;;;5.03;4.18;;;;;;;;;;5093886;28;20040;-55
2021/08/23 05:16:41;;;;;;;5.85;4.93;;;;;;;;;;5092678;28;20043;-57
2021/08/23 05:19:07;;;;;;;5.43;4.97;;;;;;;;;;5092953;28;20020;-57
2021/08/23 05:21:32;;;;;;;8.82;8.02;;;;;;;;;;5093035;28;20027;-55
2021/08/23 05:23:57;;;;;;;8.50;7.70;;;;;;;;;;5093114;28;20038;-55
2021/08/23 05:26:22;;;;;;;4.35;3.97;;;;;;;;;;5092673;28;20020;-56
2021/08/23 05:28:47;;;;;;;5.57;4.90;;;;;;;;;;5093211;28;20444;-53
2021/08/23 05:31:13;;;;;;;5.43;5.03;;;;;;;;;;5099696;28;20106;-51
2021/08/23 05:33:38;;;;;;;7.20;5.90;;;;;;;;;;5076202;28;20032;-54
2021/08/23 05:36:04;;;;;;;7.43;6.28;;;;;;;;;;5092322;28;20016;-55
2021/08/23 05:38:29;;;;;;;7.72;5.95;;;;;;;;;;5092821;28;20259;-55
2021/08/23 05:40:54;;;;;;;8.88;6.70;;;;;;;;;;5091452;28;20106;-53
2021/08/23 05:43:19;;;;;;;8.60;7.55;;;;;;;;;;5092642;28;20738;-55
2021/08/23 05:45:45;;;;;;;9.13;6.80;;;;;;;;;;5092466;28;20467;-53
2021/08/23 05:48:10;;;;;;;7.88;6.80;;;;;;;;;;5092685;28;20028;-52
2021/08/23 05:50:35;;;;;;;10.05;7.72;;;;;;;;;;5091599;28;20070;-55
2021/08/23 05:53:01;;;;;;;7.45;5.90;;;;;;;;;;5098939;28;20008;-54
2021/08/23 05:55:26;;;;;;;8.35;7.45;;;;;;;;;;5105480;28;20020;-54
2021/08/23 05:57:51;;;;;;;10.40;8.02;;;;;;;;;;5092784;28;20016;-54
2021/08/23 06:00:17;;;;;;;13.20;9.55;;;;;;;;;;5092079;28;20498;-56
2021/08/23 06:02:43;;;;;;;12.82;8.73;;;;;;;;;;5093016;28;20032;-53
2021/08/23 06:05:10;;;;;;;8.77;7.65;;;;;;;;;;5092980;28;20035;-54
2021/08/23 06:07:36;;;;;;;6.93;5.25;;;;;;;;;;5074191;28;20494;-56
2021/08/23 06:10:01;;;;;;;8.35;7.40;;;;;;;;;;5091925;28;20024;-53
2021/08/23 06:12:26;;;;;;;8.50;7.22;;;;;;;;;;5074523;28;20066;-55
2021/08/23 06:14:51;;;;;;;9.88;7.82;;;;;;;;;;5092472;28;20065;-51
2021/08/23 06:17:16;;;;;;;7.72;6.93;;;;;;;;;;5090120;28;20059;-56
2021/08/23 06:19:41;;;;;;;11.20;8.50;;;;;;;;;;5086272;28;20032;-54
2021/08/23 06:22:07;;;;;;;7.60;6.32;;;;;;;;;;5091895;28;20031;-55
2021/08/23 06:24:32;;;;;;;9.25;4.57;;;;;;;;;;5089683;28;20016;-56
2021/08/23 06:26:57;;;;;;;6.38;5.57;;;;;;;;;;5091559;28;20107;-55
2021/08/23 06:29:22;;;;;;;5.20;4.47;;;;;;;;;;5091710;28;20502;-53
2021/08/23 06:31:48;;;;;;;8.27;6.28;;;;;;;;;;5092103;28;20424;-56
2021/08/23 06:34:13;;;;;;;9.20;6.10;;;;;;;;;;5073895;28;20489;-56
2021/08/23 06:36:41;;;;;;;8.65;6.05;;;;;;;;;;5091769;28;20028;-57
2021/08/23 06:39:06;;;;;;;7.22;6.40;;;;;;;;;;5087713;28;20020;-56
2021/08/23 06:41:31;;;;;;;5.28;4.20;;;;;;;;;;5091280;28;20020;-54
2021/08/23 06:43:56;;;;;;;4.55;3.90;;;;;;;;;;5091613;28;20024;-56
2021/08/23 06:46:22;;;;;;;7.05;5.15;;;;;;;;;;5096336;28;20043;-55
2021/08/23 06:48:48;;;;;;;6.03;4.82;;;;;;;;;;5091912;28;20024;-55
2021/08/23 06:51:19;;;;;;;9.18;6.95;;;;;;;;;;5090464;28;20023;-55
2021/08/23 06:53:44;;;;;;;5.43;3.55;;;;;;;;;;5089422;28;20016;-54
2021/08/23 06:56:09;;;;;;;5.95;4.80;;;;;;;;;;5091887;28;20138;-57
2021/08/23 06:58:34;;;;;;;3.70;3.13;;;;;;;;;;5092199;28;20103;-55
2021/08/23 07:00:59;;;;;;;5.60;4.05;;;;;;;;;;5091200;28;20099;-54
2021/08/23 07:03:25;;;;;;;1.90;1.55;;;;;;;;;;5091573;28;20024;-55
2021/08/23 07:05:50;;;;;;;4.30;3.22;;;;;;;;;;5091619;28;20359;-56
2021/08/23 07:08:15;;;;;;;2.13;1.90;;;;;;;;;;5091280;28;20493;-57
2021/08/23 07:10:41;;;;;;;1.20;1.08;;;;;;;;;;5088648;28;20024;-54
2021/08/23 07:13:06;;;;;;;0.47;0.47;;;;;;;;;;5092256;28;20024;-55
2021/08/23 07:15:31;;;;;;;0.90;0.82;;;;;;;;;;5090915;28;20032;-55
2021/08/23 07:17:57;;;;;;;0.88;0.60;;;;;;;;;;5091771;28;20230;-56
2021/08/23 07:20:22;;;;;;;0.80;0.50;;;;;;;;;;5091444;28;20457;-55
2021/08/23 07:22:47;;;;;;;1.00;0.90;;;;;;;;;;5091510;28;20024;-55
2021/08/23 07:25:12;;;;;;;0.93;0.80;;;;;;;;;;5090516;28;20023;-57
2021/08/23 07:27:37;;;;;;;1.58;1.02;;;;;;;;;;5091408;28;20115;-54
2021/08/23 07:30:03;;;;;;;0.63;0.63;;;;;;;;;;5091212;28;20030;-55
2021/08/23 07:32:28;;;;;;;1.50;1.27;;;;;;;;;;5091556;28;20374;-55
2021/08/23 07:34:54;;;;;;;1.08;0.82;;;;;;;;;;5090846;28;20080;-50
2021/08/23 07:37:19;;;;;;;1.55;1.45;;;;;;;;;;5091422;28;20020;-54
2021/08/23 07:39:45;;;;;;;2.63;2.42;;;;;;;;;;5090993;28;20166;-56
2021/08/23 07:42:10;;;;;;;2.15;1.95;;;;;;;;;;5091317;28;20032;-56
2021/08/23 07:44:35;;;;;;;5.80;5.20;;;;;;;;;;5091194;28;20059;-55
2021/08/23 07:47:01;;;;;;;5.30;4.80;;;;;;;;;;5089177;28;20364;-54
2021/08/23 07:49:27;;;;;;;9.68;8.18;;;;;;;;;;5093204;28;20494;-56
2021/08/23 07:51:52;;;;;;;8.57;7.65;;;;;;;;;;5089437;28;20024;-55
2021/08/23 07:54:18;;;;;;;7.07;6.15;;;;;;;;;;5090202;28;20012;-55
2021/08/23 07:56:44;;;;;;;8.95;7.75;;;;;;;;;;5090442;28;20024;-55
2021/08/23 07:59:09;;;;;;;9.52;8.63;;;;;;;;;;5091567;28;20023;-56
2021/08/23 08:01:34;;;;;;;9.80;8.80;;;;;;;;;;5091290;28;20078;-54
2021/08/23 08:03:59;;;;;;;11.90;9.45;;;;;;;;;;5094209;28;20054;-54
2021/08/23 08:06:25;;;;;;;9.18;7.65;;;;;;;;;;5090907;28;20024;-56
2021/08/23 08:08:50;;;;;;;8.60;7.10;;;;;;;;;;5090441;28;20422;-54
2021/08/23 08:11:15;;;;;;;10.90;9.75;;;;;;;;;;5090426;28;20023;-54
2021/08/23 08:13:42;;;;;;;9.45;8.50;;;;;;;;;;5091230;28;20008;-52
2021/08/23 08:16:07;;;;;;;9.75;8.82;;;;;;;;;;5090950;28;20514;-54
2021/08/23 08:18:32;;;;;;;10.95;9.52;;;;;;;;;;5094136;28;20052;-56
2021/08/23 08:20:57;;;;;;;7.07;6.40;;;;;;;;;;5094709;28;20024;-52
2021/08/23 08:23:22;;;;;;;7.70;6.68;;;;;;;;;;5095101;28;20020;-56
2021/08/23 08:25:48;;;;;;;8.20;5.95;;;;;;;;;;5076170;28;20020;-55
2021/08/23 08:28:13;;;;;;;6.32;5.72;;;;;;;;;;5094385;28;20112;-52
2021/08/23 08:30:39;;;;;;;4.45;4.05;;;;;;;;;;5094252;28;20458;-53
2021/08/23 08:33:04;;;;;;;5.30;4.80;;;;;;;;;;5094540;28;20019;-54
2021/08/23 08:35:30;;;;;;;2.78;2.58;;;;;;;;;;5094997;28;20093;-51
2021/08/23 08:37:55;;;;;;;3.08;2.88;;;;;;;;;;5093455;28;20038;-54
2021/08/23 08:40:20;;;;;;;2.70;2.50;;;;;;;;;;5075344;28;20034;-56
2021/08/23 08:42:46;;;;;;;1.63;1.52;;;;;;;;;;5094311;28;20024;-54
2021/08/23 08:45:12;;;;;;;2.80;2.60;;;;;;;;;;5093892;28;20470;-55
2021/08/23 08:47:41;;;;;;;3.00;2.67;;;;;;;;;;5094421;28;20032;-55
2021/08/23 08:50:07;;;;;;;2.97;2.40;;;;;;;;;;5095263;28;20027;-55
2021/08/23 08:52:32;;;;;;;2.00;1.90;;;;;;;;;;5093508;28;20020;-55
2021/08/23 08:54:57;;;;;;;1.95;1.80;;;;;;;;;;5094306;28;20017;-55
2021/08/23 08:57:23;;;;;;;2.28;1.50;;;;;;;;;;5094037;28;20028;-52
2021/08/23 08:59:48;;;;;;;1.17;1.08;;;;;;;;;;5094324;28;20016;-51
2021/08/23 09:02:13;;;;;;;1.80;1.70;;;;;;;;;;5093463;28;20437;-53
2021/08/23 09:04:39;;;;;;;1.67;1.58;;;;;;;;;;5093150;28;20040;-53
2021/08/23 09:07:08;;;;;;;0.80;0.80;;;;;;;;;;5093790;28;20028;-55
2021/08/23 09:09:34;;;;;;;1.25;1.15;;;;;;;;;;5093573;28;20035;-54
2021/08/23 09:12:04;;;;;;;1.38;1.27;;;;;;;;;;5097497;28;20197;-55
2021/08/23 09:14:30;;;;;;;0.73;0.60;;;;;;;;;;5088939;28;20486;-55
2021/08/23 09:17:02;;;;;;;0.63;0.47;;;;;;;;;;5093681;28;20049;-55
2021/08/23 09:19:28;;;;;;;0.30;0.30;;;;;;;;;;5094262;28;20012;-53
2021/08/23 09:21:57;;;;;;;0.70;0.50;;;;;;;;;;5093378;28;20024;-57
2021/08/23 09:24:22;;;;;;;0.47;0.40;;;;;;;;;;5093632;28;20016;-53
2021/08/23 09:26:48;;;;;;;0.65;0.35;;;;;;;;;;5093298;28;20023;-56
2021/08/23 09:29:13;;;;;;;1.85;0.70;;;;;;;;;;5098572;28;20100;-56
2021/08/23 09:31:39;;;;;;;0.90;0.50;;;;;;;;;;5097613;28;20016;-55
2021/08/23 09:34:05;;;;;;;0.60;0.50;;;;;;;;;;5094152;28;20069;-55
2021/08/23 09:36:34;;;;;;;0.30;0.30;;;;;;;;;;5093293;28;20031;-51
2021/08/23 09:39:00;;;;;;;1.17;0.20;;;;;;;;;;5093753;28;20028;-53
2021/08/23 09:41:26;;;;;;;0.22;0.20;;;;;;;;;;5090348;28;20367;-55
2021/08/23 09:44:00;;;;;;;0.20;0.10;;;;;;;;;;5090988;28;20016;-53
2021/08/23 09:46:25;;;;;;;0.53;0.20;;;;;;;;;;5092956;28;20038;-56
2021/08/23 09:48:52;;;;;;;0.20;0.10;;;;;;;;;;5074577;28;20282;-54
2021/08/23 09:51:31;;;;;;;0.20;0.10;;;;;;;;;;5092640;28;20020;-56
2021/08/23 09:54:12;;;;;;;0.20;0.10;;;;;;;;;;5093662;28;20020;-55
2021/08/23 09:56:42;;;;;;;0.10;0.10;;;;;;;;;;5091774;28;20024;-54
2021/08/23 09:59:11;;;;;;;0.70;0.10;;;;;;;;;;5091540;28;20049;-55
2021/08/23 10:01:36;;;;;;;0.20;0.20;;;;;;;;;;5092612;28;20442;-55
2021/08/23 10:04:03;;;;;;;0.40;0.20;;;;;;;;;;5092344;28;20110;-50
2021/08/23 10:06:28;;;;;;;0.88;0.20;;;;;;;;;;5092084;28;20361;-55
2021/08/23 10:08:54;;;;;;;1.00;0.30;;;;;;;;;;5092961;28;20102;-55
2021/08/23 10:11:21;;;;;;;1.17;0.30;;;;;;;;;;5090884;28;20024;-54
2021/08/23 10:13:46;;;;;;;1.50;0.30;;;;;;;;;;5092184;28;20034;-54
2021/08/23 10:16:11;;;;;;;1.75;0.30;;;;;;;;;;5092387;28;20020;-57
2021/08/23 10:18:38;;;;;;;0.88;0.30;;;;;;;;;;5092132;28;20032;-55
2021/08/23 10:21:07;;;;;;;0.60;0.28;;;;;;;;;;5091991;28;20023;-56
2021/08/23 10:23:32;;;;;;;0.32;0.30;;;;;;;;;;5087445;28;20024;-55
2021/08/23 10:25:58;;;;;;;0.30;0.20;;;;;;;;;;5092463;28;20073;-56
2021/08/23 10:28:34;;;;;;;1.60;0.20;;;;;;;;;;5092749;28;20047;-56
2021/08/23 10:31:09;;;;;;;1.17;0.32;;;;;;;;;;5089309;28;20095;-55
2021/08/23 10:33:37;;;;;;;0.40;0.30;;;;;;;;;;5092444;28;20015;-54
2021/08/23 10:36:06;;;;;;;0.63;0.30;;;;;;;;;;5092314;28;20102;-56
2021/08/23 10:38:31;;;;;;;0.20;0.20;;;;;;;;;;5092040;28;20032;-55
2021/08/23 10:41:10;;;;;;;0.93;0.30;;;;;;;;;;5093276;28;20016;-54
2021/08/23 10:43:47;;;;;;;0.13;0.10;;;;;;;;;;5092568;28;20087;-55
2021/08/23 10:46:24;;;;;;;0.47;0.10;;;;;;;;;;5092734;28;20379;-56
2021/08/23 10:48:50;;;;;;;1.08;0.10;;;;;;;;;;5091980;28;20378;-58
2021/08/23 10:51:27;;;;;;;0.10;0.00;;;;;;;;;;5091744;28;20012;-56
2021/08/23 10:53:52;;;;;;;0.30;0.00;;;;;;;;;;5090427;28;20479;-55
2021/08/23 10:56:18;;;;;;;0.40;0.10;;;;;;;;;;5055528;28;20055;-55
2021/08/23 10:58:45;;;;;;;0.03;0.00;;;;;;;;;;5089317;28;20027;-53
2021/08/23 11:01:21;;;;;;;0.10;0.03;;;;;;;;;;5091315;28;20072;-52
2021/08/23 11:04:07;;;;;;;0.20;0.00;;;;;;;;;;5092293;28;20024;-56
2021/08/23 11:06:33;;;;;;;0.10;0.00;;;;;;;;;;5091074;28;20028;-55
2021/08/23 11:09:04;;;;;;;2.03;0.10;;;;;;;;;;5088430;28;20024;-58
2021/08/23 11:11:33;;;;;;;0.10;0.00;;;;;;;;;;5080892;28;20026;-53
2021/08/23 11:13:58;;;;;;;0.10;0.10;;;;;;;;;;5094480;28;20036;-56
2021/08/23 11:16:25;;;;;;;0.10;0.10;;;;;;;;;;5092289;28;20039;-54
2021/08/23 11:18:50;;;;;;;0.10;0.10;;;;;;;;;;5098476;28;20031;-53
2021/08/23 11:21:17;;;;;;;0.50;0.30;;;;;;;;;;5095510;28;20035;-57
2021/08/23 11:23:44;;;;;;;0.20;0.20;;;;;;;;;;5091566;28;20024;-56
2021/08/23 11:26:19;;;;;;;0.30;0.10;;;;;;;;;;5091097;28;20462;-56
2021/08/23 11:28:44;;;;;;;0.20;0.20;;;;;;;;;;5075296;28;20059;-53
2021/08/23 11:31:09;;;;;;;0.17;0.17;;;;;;;;;;5091149;28;20385;-56
2021/08/23 11:33:36;;;;;;;0.75;0.08;;;;;;;;;;5091336;28;20016;-57
2021/08/23 11:36:02;;;;;;;1.27;0.10;;;;;;;;;;5090831;28;20421;-56
2021/08/23 11:38:33;;;;;;;0.30;0.10;;;;;;;;;;5091586;28;20020;-55
2021/08/23 11:40:58;;;;;;;0.00;0.00;;;;;;;;;;5090583;28;20027;-56
2021/08/23 11:43:27;;;;;;;0.10;0.03;;;;;;;;;;5091309;28;20458;-56
2021/08/23 11:45:53;;;;;;;0.10;0.00;;;;;;;;;;5091629;28;20026;-56
2021/08/23 11:48:18;;;;;;;0.98;0.00;;;;;;;;;;5091789;28;20016;-55
2021/08/23 11:50:43;;;;;;;0.10;0.00;;;;;;;;;;5090575;28;20017;-55
2021/08/23 11:53:10;;;;;;;0.32;0.30;;;;;;;;;;5093697;28;20024;-58
2021/08/23 11:55:36;;;;;;;0.60;0.40;;;;;;;;;;5115651;28;20098;-57
2021/08/23 11:58:03;;;;;;;0.40;0.40;;;;;;;;;;5108621;28;20020;-56
2021/08/23 12:00:29;;;;;;;0.40;0.30;;;;;;;;;;5078015;28;20034;-56
2021/08/23 12:03:04;;;;;;;0.40;0.40;;;;;;;;;;5094612;28;20020;-53
2021/08/23 12:05:36;;;;;;;0.50;0.20;;;;;;;;;;5095416;28;20109;-56
2021/08/23 12:08:01;;;;;;;0.60;0.20;;;;;;;;;;5095189;28;20028;-55
2021/08/23 12:10:26;;;;;;;1.15;0.20;;;;;;;;;;5094953;28;20016;-56
2021/08/23 12:12:52;;;;;;;1.05;0.40;;;;;;;;;;5094224;28;20530;-56
2021/08/23 12:15:19;;;;;;;0.77;0.25;;;;;;;;;;5094695;28;20110;-56
2021/08/23 12:17:44;;;;;;;0.40;0.40;;;;;;;;;;5094719;28;20032;-56
2021/08/23 12:20:09;;;;;;;0.88;0.60;;;;;;;;;;5094713;28;20524;-55
2021/08/23 12:22:34;;;;;;;1.10;0.77;;;;;;;;;;5094072;28;20034;-57
2021/08/23 12:25:01;;;;;;;0.95;0.68;;;;;;;;;;5094343;28;20023;-57
2021/08/23 12:27:27;;;;;;;2.10;0.90;;;;;;;;;;5093960;28;20424;-57
2021/08/23 12:29:52;;;;;;;1.48;1.25;;;;;;;;;;5093549;28;20081;-57
2021/08/23 12:32:17;;;;;;;2.22;1.63;;;;;;;;;;5097103;28;20107;-55
2021/08/23 12:34:44;;;;;;;2.83;1.90;;;;;;;;;;5115108;28;20370;-55
2021/08/23 12:37:10;;;;;;;4.60;1.88;;;;;;;;;;5091493;28;20032;-57
2021/08/23 12:39:35;;;;;;;2.70;2.10;;;;;;;;;;5092210;28;20083;-56
2021/08/23 12:42:01;;;;;;;2.60;2.40;;;;;;;;;;5093754;28;20114;-57
2021/08/23 12:44:27;;;;;;;2.40;2.10;;;;;;;;;;5094299;28;20020;-58
2021/08/23 12:46:53;;;;;;;2.45;2.03;;;;;;;;;;5094756;28;20127;-57
2021/08/23 12:49:18;;;;;;;1.70;1.60;;;;;;;;;;5094004;28;20500;-55
2021/08/23 12:51:44;;;;;;;2.17;1.88;;;;;;;;;;5094250;28;20016;-55
2021/08/23 12:54:10;;;;;;;1.27;1.02;;;;;;;;;;5094573;28;20218;-54
2021/08/23 12:56:36;;;;;;;2.58;1.30;;;;;;;;;;5094206;28;20020;-57
2021/08/23 12:59:01;;;;;;;1.15;1.05;;;;;;;;;;5075341;28;20016;-57
2021/08/23 13:01:27;;;;;;;1.27;1.13;;;;;;;;;;5075990;28;20031;-55
2021/08/23 13:03:52;;;;;;;1.30;1.20;;;;;;;;;;5096496;28;20057;-55
2021/08/23 13:06:17;;;;;;;1.50;1.05;;;;;;;;;;5108560;28;20065;-58
2021/08/23 13:08:43;;;;;;;1.27;1.17;;;;;;;;;;5093960;28;20024;-58
2021/08/23 13:11:08;;;;;;;1.65;1.08;;;;;;;;;;5093417;28;20032;-56
2021/08/23 13:13:33;;;;;;;2.55;0.98;;;;;;;;;;5093890;28;20466;-58
2021/08/23 13:15:59;;;;;;;1.00;0.68;;;;;;;;;;5094099;28;20012;-57
2021/08/23 13:18:24;;;;;;;0.63;0.45;;;;;;;;;;5093275;28;20446;-58
2021/08/23 13:20:49;;;;;;;0.80;0.80;;;;;;;;;;5093637;28;20452;-56
2021/08/23 13:23:14;;;;;;;0.73;0.73;;;;;;;;;;5093756;28;20020;-57
2021/08/23 13:25:40;;;;;;;0.93;0.70;;;;;;;;;;5093172;28;20386;-57
2021/08/23 13:28:06;;;;;;;1.35;1.20;;;;;;;;;;5093399;28;20040;-57
2021/08/23 13:30:32;;;;;;;0.65;0.65;;;;;;;;;;5093330;28;20478;-54
2021/08/23 13:32:57;;;;;;;0.60;0.60;;;;;;;;;;5093499;28;20089;-58
2021/08/23 13:35:22;;;;;;;0.73;0.57;;;;;;;;;;5093513;28;20555;-58
2021/08/23 13:37:48;;;;;;;0.70;0.70;;;;;;;;;;5093554;28;20027;-58
2021/08/23 13:40:13;;;;;;;1.02;0.60;;;;;;;;;;5091262;28;20023;-57
2021/08/23 13:42:38;;;;;;;0.40;0.40;;;;;;;;;;5074204;28;20047;-59
2021/08/23 13:45:04;;;;;;;0.40;0.30;;;;;;;;;;5093385;28;20027;-58
2021/08/23 13:47:29;;;;;;;0.50;0.40;;;;;;;;;;5092742;28;20380;-57
2021/08/23 13:49:56;;;;;;;1.00;0.90;;;;;;;;;;5089261;28;20016;-57
2021/08/23 13:52:21;;;;;;;1.50;1.38;;;;;;;;;;5092134;28;20020;-59
2021/08/23 13:54:46;;;;;;;1.33;1.23;;;;;;;;;;5092986;28;20020;-57
2021/08/23 13:57:11;;;;;;;2.67;1.88;;;;;;;;;;5093008;28;20017;-57
2021/08/23 13:59:36;;;;;;;2.30;2.20;;;;;;;;;;5092806;28;20050;-57
2021/08/23 14:02:03;;;;;;;3.60;2.70;;;;;;;;;;5091988;28;20103;-56
2021/08/23 14:04:31;;;;;;;3.00;2.80;;;;;;;;;;5092137;28;20518;-57
2021/08/23 14:06:56;;;;;;;4.15;3.85;;;;;;;;;;5088203;28;20038;-56
2021/08/23 14:09:22;;;;;;;3.72;3.45;;;;;;;;;;5092693;28;20020;-57
2021/08/23 14:11:47;;;;;;;3.95;3.65;;;;;;;;;;5091515;28;20247;-56
2021/08/23 14:14:12;;;;;;;3.60;3.38;;;;;;;;;;5077907;28;20383;-55
2021/08/23 14:16:37;;;;;;;3.42;3.22;;;;;;;;;;5072596;28;20028;-57
2021/08/23 14:19:02;;;;;;;4.30;4.00;;;;;;;;;;5080095;28;20073;-59
2021/08/23 14:21:28;;;;;;;4.18;3.72;;;;;;;;;;5090843;28;20032;-57
2021/08/23 14:23:53;;;;;;;5.72;5.22;;;;;;;;;;5082923;28;20034;-57
2021/08/23 14:26:19;;;;;;;6.15;5.63;;;;;;;;;;5091421;28;20020;-58
2021/08/23 14:28:44;;;;;;;7.18;6.57;;;;;;;;;;5090159;28;20101;-58
2021/08/23 14:31:10;;;;;;;7.28;6.18;;;;;;;;;;5092655;28;20144;-58
2021/08/23 14:33:36;;;;;;;5.20;4.80;;;;;;;;;;5091900;28;20063;-56
2021/08/23 14:36:01;;;;;;;3.85;3.55;;;;;;;;;;5092109;28;20051;-57